CheckWX is a tool to help pilots better visualize weather data.  It is not intended as a substitute for an official pre-flight weather briefing.

06:43:16 UTC

KKNB METAR
Kanab Municipal Airport
Kanab, Utah, USA
Current

28 mins ago

KKNB 290615Z AUTO 03004KT 10SM CLR 21/02 A3017 RMK A01
Observed
May-29 @ 06:15 UTC
Wind
  • 030° at 4 KTS
Visibility
Flight Rules
VFR
Cloud Levels
  • Clear skies
Temperature
21°C / 70°F
Dewpoint
C / 36°F
Humidity
29%
Altimeter
30.17" Hg
Pressure
1021.72 hPa
Previous

48 mins ago

KKNB 290555Z AUTO 01006KT 10SM CLR 21/02 A3018 RMK A01
Observed
May-29 @ 05:55 UTC
Wind
  • 010° at 6 KTS
Visibility
Flight Rules
VFR
Cloud Levels
  • Clear skies
Temperature
21°C / 70°F
Dewpoint
C / 36°F
Humidity
29%
Altimeter
30.18" Hg
Pressure
1022.02 hPa
Previous

1 hour ago

KKNB 290535Z AUTO 00000KT 10SM CLR 22/01 A3017 RMK A01
Observed
May-29 @ 05:35 UTC
Visibility
Flight Rules
VFR
Cloud Levels
  • Clear skies
Temperature
22°C / 72°F
Dewpoint
C / 34°F
Humidity
25%
Altimeter
30.17" Hg
Pressure
1021.72 hPa